sensor_id;sensor_type;location;lat;lon;timestamp;temperature;humidity
15413;DHT22;7805;49.554;7.632;2023-04-24T00:00:46;12.70;99.90
15413;DHT22;7805;49.554;7.632;2023-04-24T00:03:12;12.70;99.90
15413;DHT22;7805;49.554;7.632;2023-04-24T00:05:38;12.70;99.90
15413;DHT22;7805;49.554;7.632;2023-04-24T00:08:05;12.70;99.90
15413;DHT22;7805;49.554;7.632;2023-04-24T00:10:31;12.70;99.90
15413;DHT22;7805;49.554;7.632;2023-04-24T00:12:57;12.60;99.90
15413;DHT22;7805;49.554;7.632;2023-04-24T00:15:22;12.60;99.90
15413;DHT22;7805;49.554;7.632;2023-04-24T00:17:48;12.60;99.90
15413;DHT22;7805;49.554;7.632;2023-04-24T00:20:14;12.60;99.90
15413;DHT22;7805;49.554;7.632;2023-04-24T00:22:40;12.60;99.90
15413;DHT22;7805;49.554;7.632;2023-04-24T00:25:06;12.60;99.90
15413;DHT22;7805;49.554;7.632;2023-04-24T00:27:31;12.70;99.90
15413;DHT22;7805;49.554;7.632;2023-04-24T00:29:57;12.60;99.90
15413;DHT22;7805;49.554;7.632;2023-04-24T00:32:22;12.60;99.90
15413;DHT22;7805;49.554;7.632;2023-04-24T00:34:48;12.70;99.90
15413;DHT22;7805;49.554;7.632;2023-04-24T00:37:13;12.70;99.90
15413;DHT22;7805;49.554;7.632;2023-04-24T00:39:39;12.70;99.90
15413;DHT22;7805;49.554;7.632;2023-04-24T00:42:04;12.70;99.90
15413;DHT22;7805;49.554;7.632;2023-04-24T00:44:33;12.70;99.90
15413;DHT22;7805;49.554;7.632;2023-04-24T00:46:59;12.70;99.90
15413;DHT22;7805;49.554;7.632;2023-04-24T00:49:26;12.70;99.90
15413;DHT22;7805;49.554;7.632;2023-04-24T00:51:52;12.60;99.90
15413;DHT22;7805;49.554;7.632;2023-04-24T00:54:19;12.60;99.90
15413;DHT22;7805;49.554;7.632;2023-04-24T00:56:45;12.70;99.90
15413;DHT22;7805;49.554;7.632;2023-04-24T00:59:16;12.70;99.90
15413;DHT22;7805;49.554;7.632;2023-04-24T01:01:43;12.70;99.90
15413;DHT22;7805;49.554;7.632;2023-04-24T01:04:11;12.80;99.90
15413;DHT22;7805;49.554;7.632;2023-04-24T01:06:38;12.70;99.90
15413;DHT22;7805;49.554;7.632;2023-04-24T01:09:04;12.60;99.90
15413;DHT22;7805;49.554;7.632;2023-04-24T01:11:31;12.50;99.90
15413;DHT22;7805;49.554;7.632;2023-04-24T01:13:56;12.40;99.90
15413;DHT22;7805;49.554;7.632;2023-04-24T01:16:23;12.40;99.90
15413;DHT22;7805;49.554;7.632;2023-04-24T01:18:49;12.40;99.90
15413;DHT22;7805;49.554;7.632;2023-04-24T01:21:15;12.40;99.90
15413;DHT22;7805;49.554;7.632;2023-04-24T01:23:45;12.30;99.90
15413;DHT22;7805;49.554;7.632;2023-04-24T01:26:12;12.30;99.90
15413;DHT22;7805;49.554;7.632;2023-04-24T01:28:38;12.20;99.90
15413;DHT22;7805;49.554;7.632;2023-04-24T01:31:04;12.20;99.90
15413;DHT22;7805;49.554;7.632;2023-04-24T01:33:30;12.10;99.90
15413;DHT22;7805;49.554;7.632;2023-04-24T01:35:56;12.10;99.90
15413;DHT22;7805;49.554;7.632;2023-04-24T01:38:22;12.10;99.90
15413;DHT22;7805;49.554;7.632;2023-04-24T01:40:49;12.10;99.90
15413;DHT22;7805;49.554;7.632;2023-04-24T01:43:15;12.20;99.90
15413;DHT22;7805;49.554;7.632;2023-04-24T01:45:40;12.20;99.90
15413;DHT22;7805;49.554;7.632;2023-04-24T01:48:06;12.20;99.90
15413;DHT22;7805;49.554;7.632;2023-04-24T01:50:32;12.20;99.90
15413;DHT22;7805;49.554;7.632;2023-04-24T01:52:57;12.10;99.90
15413;DHT22;7805;49.554;7.632;2023-04-24T01:55:23;12.00;99.90
15413;DHT22;7805;49.554;7.632;2023-04-24T01:57:49;12.10;99.90
15413;DHT22;7805;49.554;7.632;2023-04-24T02:00:15;12.00;99.90
15413;DHT22;7805;49.554;7.632;2023-04-24T02:02:41;12.00;99.90
15413;DHT22;7805;49.554;7.632;2023-04-24T02:05:08;12.00;99.90
15413;DHT22;7805;49.554;7.632;2023-04-24T02:07:33;12.00;99.90
15413;DHT22;7805;49.554;7.632;2023-04-24T02:09:59;12.00;99.90
15413;DHT22;7805;49.554;7.632;2023-04-24T02:12:24;11.90;99.90
15413;DHT22;7805;49.554;7.632;2023-04-24T02:14:50;11.90;99.90
15413;DHT22;7805;49.554;7.632;2023-04-24T02:17:16;11.90;99.90
15413;DHT22;7805;49.554;7.632;2023-04-24T02:19:42;11.90;99.90
15413;DHT22;7805;49.554;7.632;2023-04-24T02:22:07;11.80;99.90
15413;DHT22;7805;49.554;7.632;2023-04-24T02:24:33;11.80;99.90
15413;DHT22;7805;49.554;7.632;2023-04-24T02:26:58;11.80;99.90
15413;DHT22;7805;49.554;7.632;2023-04-24T02:29:24;11.80;99.90
15413;DHT22;7805;49.554;7.632;2023-04-24T02:31:49;11.80;99.90
15413;DHT22;7805;49.554;7.632;2023-04-24T02:34:15;11.70;99.90
15413;DHT22;7805;49.554;7.632;2023-04-24T02:36:41;11.70;99.90
15413;DHT22;7805;49.554;7.632;2023-04-24T02:39:07;11.70;99.90
15413;DHT22;7805;49.554;7.632;2023-04-24T02:41:32;11.70;99.90
15413;DHT22;7805;49.554;7.632;2023-04-24T02:43:58;11.70;99.90
15413;DHT22;7805;49.554;7.632;2023-04-24T02:46:24;11.70;99.90
15413;DHT22;7805;49.554;7.632;2023-04-24T02:48:50;11.70;99.90
15413;DHT22;7805;49.554;7.632;2023-04-24T02:51:15;11.60;99.90
15413;DHT22;7805;49.554;7.632;2023-04-24T02:53:41;11.60;99.90
15413;DHT22;7805;49.554;7.632;2023-04-24T02:56:07;11.60;99.90
15413;DHT22;7805;49.554;7.632;2023-04-24T02:58:32;11.50;99.90
15413;DHT22;7805;49.554;7.632;2023-04-24T03:00:58;11.50;99.90
15413;DHT22;7805;49.554;7.632;2023-04-24T03:03:23;11.60;99.90
15413;DHT22;7805;49.554;7.632;2023-04-24T03:05:49;11.50;99.90
15413;DHT22;7805;49.554;7.632;2023-04-24T03:08:15;11.50;99.90
15413;DHT22;7805;49.554;7.632;2023-04-24T03:10:41;11.40;99.90
15413;DHT22;7805;49.554;7.632;2023-04-24T03:13:07;11.40;99.90
15413;DHT22;7805;49.554;7.632;2023-04-24T03:15:32;13.10;99.90
15413;DHT22;7805;49.554;7.632;2023-04-24T03:17:58;11.30;99.90
15413;DHT22;7805;49.554;7.632;2023-04-24T03:20:24;11.30;99.90
15413;DHT22;7805;49.554;7.632;2023-04-24T03:22:49;11.30;99.90
15413;DHT22;7805;49.554;7.632;2023-04-24T03:25:15;11.20;99.90
15413;DHT22;7805;49.554;7.632;2023-04-24T03:27:40;11.20;99.90
15413;DHT22;7805;49.554;7.632;2023-04-24T03:30:07;11.20;99.90
15413;DHT22;7805;49.554;7.632;2023-04-24T03:32:33;11.20;99.90
15413;DHT22;7805;49.554;7.632;2023-04-24T03:34:58;11.20;99.90
15413;DHT22;7805;49.554;7.632;2023-04-24T03:37:24;11.20;99.90
15413;DHT22;7805;49.554;7.632;2023-04-24T03:39:49;11.20;99.90
15413;DHT22;7805;49.554;7.632;2023-04-24T03:42:15;11.10;99.90
15413;DHT22;7805;49.554;7.632;2023-04-24T03:44:41;11.10;99.90
15413;DHT22;7805;49.554;7.632;2023-04-24T03:47:06;11.00;99.90
15413;DHT22;7805;49.554;7.632;2023-04-24T03:49:32;11.00;99.90
15413;DHT22;7805;49.554;7.632;2023-04-24T03:51:57;11.00;99.90
15413;DHT22;7805;49.554;7.632;2023-04-24T03:54:23;11.00;99.90
15413;DHT22;7805;49.554;7.632;2023-04-24T03:56:48;10.90;99.90
15413;DHT22;7805;49.554;7.632;2023-04-24T03:59:14;10.90;99.90
15413;DHT22;7805;49.554;7.632;2023-04-24T04:01:39;10.90;99.90
15413;DHT22;7805;49.554;7.632;2023-04-24T04:04:06;10.90;99.90
15413;DHT22;7805;49.554;7.632;2023-04-24T04:06:32;10.20;99.90
15413;DHT22;7805;49.554;7.632;2023-04-24T04:08:58;10.80;99.90
15413;DHT22;7805;49.554;7.632;2023-04-24T04:11:24;10.90;99.90
15413;DHT22;7805;49.554;7.632;2023-04-24T04:13:49;10.90;99.90
15413;DHT22;7805;49.554;7.632;2023-04-24T04:16:15;10.90;99.90
15413;DHT22;7805;49.554;7.632;2023-04-24T04:18:42;10.80;99.90
15413;DHT22;7805;49.554;7.632;2023-04-24T04:21:08;10.80;99.90
15413;DHT22;7805;49.554;7.632;2023-04-24T04:23:33;10.80;99.90
15413;DHT22;7805;49.554;7.632;2023-04-24T04:25:59;10.80;99.90
15413;DHT22;7805;49.554;7.632;2023-04-24T04:28:25;10.90;99.90
15413;DHT22;7805;49.554;7.632;2023-04-24T04:30:51;10.90;99.90
15413;DHT22;7805;49.554;7.632;2023-04-24T04:33:20;10.90;99.90
15413;DHT22;7805;49.554;7.632;2023-04-24T04:35:46;10.90;99.90
15413;DHT22;7805;49.554;7.632;2023-04-24T04:38:14;10.90;99.90
15413;DHT22;7805;49.554;7.632;2023-04-24T04:40:40;10.80;99.90
15413;DHT22;7805;49.554;7.632;2023-04-24T04:43:06;10.70;99.90
15413;DHT22;7805;49.554;7.632;2023-04-24T04:45:31;10.70;99.90
15413;DHT22;7805;49.554;7.632;2023-04-24T04:47:58;10.50;99.90
15413;DHT22;7805;49.554;7.632;2023-04-24T04:50:26;10.50;99.90
15413;DHT22;7805;49.554;7.632;2023-04-24T04:52:52;10.50;99.90
15413;DHT22;7805;49.554;7.632;2023-04-24T04:55:18;10.50;99.90
15413;DHT22;7805;49.554;7.632;2023-04-24T04:57:45;10.60;99.90
15413;DHT22;7805;49.554;7.632;2023-04-24T05:00:11;10.60;99.90
15413;DHT22;7805;49.554;7.632;2023-04-24T05:02:38;10.70;99.90
15413;DHT22;7805;49.554;7.632;2023-04-24T05:05:04;10.70;99.90
15413;DHT22;7805;49.554;7.632;2023-04-24T05:07:31;10.70;99.90
15413;DHT22;7805;49.554;7.632;2023-04-24T05:09:57;10.70;99.90
15413;DHT22;7805;49.554;7.632;2023-04-24T05:12:22;10.60;99.90
15413;DHT22;7805;49.554;7.632;2023-04-24T05:14:48;10.60;99.90
15413;DHT22;7805;49.554;7.632;2023-04-24T05:17:13;10.60;99.90
15413;DHT22;7805;49.554;7.632;2023-04-24T05:19:39;10.60;99.90
15413;DHT22;7805;49.554;7.632;2023-04-24T05:22:04;10.70;99.90
15413;DHT22;7805;49.554;7.632;2023-04-24T05:24:33;10.70;99.90
15413;DHT22;7805;49.554;7.632;2023-04-24T05:26:59;10.80;99.90
15413;DHT22;7805;49.554;7.632;2023-04-24T05:29:25;10.90;99.90
15413;DHT22;7805;49.554;7.632;2023-04-24T05:31:51;10.80;99.90
15413;DHT22;7805;49.554;7.632;2023-04-24T05:34:17;10.80;99.90
15413;DHT22;7805;49.554;7.632;2023-04-24T05:36:43;10.80;99.90
15413;DHT22;7805;49.554;7.632;2023-04-24T05:39:09;10.70;99.90
15413;DHT22;7805;49.554;7.632;2023-04-24T05:41:34;10.70;99.90
15413;DHT22;7805;49.554;7.632;2023-04-24T05:44:00;10.80;99.90
15413;DHT22;7805;49.554;7.632;2023-04-24T05:46:26;10.70;99.90
15413;DHT22;7805;49.554;7.632;2023-04-24T05:48:51;10.80;99.90
15413;DHT22;7805;49.554;7.632;2023-04-24T05:51:17;10.90;99.90
15413;DHT22;7805;49.554;7.632;2023-04-24T05:53:42;10.90;99.90
15413;DHT22;7805;49.554;7.632;2023-04-24T05:56:08;10.90;99.90
15413;DHT22;7805;49.554;7.632;2023-04-24T05:58:34;10.90;99.90
15413;DHT22;7805;49.554;7.632;2023-04-24T06:01:00;10.80;99.90
15413;DHT22;7805;49.554;7.632;2023-04-24T06:03:27;10.80;99.90
15413;DHT22;7805;49.554;7.632;2023-04-24T06:05:53;10.90;99.90
15413;DHT22;7805;49.554;7.632;2023-04-24T06:08:18;11.00;99.90
15413;DHT22;7805;49.554;7.632;2023-04-24T06:10:44;11.00;99.90
15413;DHT22;7805;49.554;7.632;2023-04-24T06:13:09;10.90;99.90
15413;DHT22;7805;49.554;7.632;2023-04-24T06:15:36;11.00;99.90
15413;DHT22;7805;49.554;7.632;2023-04-24T06:18:03;11.00;99.90
15413;DHT22;7805;49.554;7.632;2023-04-24T06:20:28;11.10;99.90
15413;DHT22;7805;49.554;7.632;2023-04-24T06:22:54;11.30;99.90
15413;DHT22;7805;49.554;7.632;2023-04-24T06:25:20;11.40;99.90
15413;DHT22;7805;49.554;7.632;2023-04-24T06:27:46;11.30;99.90
15413;DHT22;7805;49.554;7.632;2023-04-24T06:30:12;11.30;99.90
15413;DHT22;7805;49.554;7.632;2023-04-24T06:32:37;11.40;99.90
15413;DHT22;7805;49.554;7.632;2023-04-24T06:35:03;11.40;99.90
15413;DHT22;7805;49.554;7.632;2023-04-24T06:37:29;11.40;99.90
15413;DHT22;7805;49.554;7.632;2023-04-24T06:39:55;11.40;99.90
15413;DHT22;7805;49.554;7.632;2023-04-24T06:42:20;11.40;99.90
15413;DHT22;7805;49.554;7.632;2023-04-24T06:44:47;11.40;99.90
15413;DHT22;7805;49.554;7.632;2023-04-24T06:47:13;11.40;99.90
15413;DHT22;7805;49.554;7.632;2023-04-24T06:49:39;11.30;99.90
15413;DHT22;7805;49.554;7.632;2023-04-24T06:52:05;11.30;99.90
15413;DHT22;7805;49.554;7.632;2023-04-24T06:54:31;11.40;99.90
15413;DHT22;7805;49.554;7.632;2023-04-24T06:56:57;11.40;99.90
15413;DHT22;7805;49.554;7.632;2023-04-24T06:59:23;11.30;99.90
15413;DHT22;7805;49.554;7.632;2023-04-24T07:01:49;11.30;99.90
15413;DHT22;7805;49.554;7.632;2023-04-24T07:04:16;11.30;99.90
15413;DHT22;7805;49.554;7.632;2023-04-24T07:06:42;11.30;99.90
15413;DHT22;7805;49.554;7.632;2023-04-24T07:09:08;11.30;99.90
15413;DHT22;7805;49.554;7.632;2023-04-24T07:11:35;11.30;99.90
15413;DHT22;7805;49.554;7.632;2023-04-24T07:14:02;11.30;99.90
15413;DHT22;7805;49.554;7.632;2023-04-24T07:16:28;11.20;99.90
15413;DHT22;7805;49.554;7.632;2023-04-24T07:18:53;11.30;99.90
15413;DHT22;7805;49.554;7.632;2023-04-24T07:21:19;11.30;99.90
15413;DHT22;7805;49.554;7.632;2023-04-24T07:23:44;11.30;99.90
15413;DHT22;7805;49.554;7.632;2023-04-24T07:26:10;11.10;99.90
15413;DHT22;7805;49.554;7.632;2023-04-24T07:28:36;11.20;99.90
15413;DHT22;7805;49.554;7.632;2023-04-24T07:31:01;11.20;99.90
15413;DHT22;7805;49.554;7.632;2023-04-24T07:33:27;11.20;99.90
15413;DHT22;7805;49.554;7.632;2023-04-24T07:35:52;11.20;99.90
15413;DHT22;7805;49.554;7.632;2023-04-24T07:38:18;11.20;99.90
15413;DHT22;7805;49.554;7.632;2023-04-24T07:40:48;11.30;99.90
15413;DHT22;7805;49.554;7.632;2023-04-24T07:43:14;11.20;99.90
15413;DHT22;7805;49.554;7.632;2023-04-24T07:45:40;11.30;99.90
15413;DHT22;7805;49.554;7.632;2023-04-24T07:48:06;11.30;99.90
15413;DHT22;7805;49.554;7.632;2023-04-24T07:50:31;11.30;99.90
15413;DHT22;7805;49.554;7.632;2023-04-24T07:52:57;11.30;99.90
15413;DHT22;7805;49.554;7.632;2023-04-24T07:55:23;11.30;99.90
15413;DHT22;7805;49.554;7.632;2023-04-24T07:57:48;11.30;99.90
15413;DHT22;7805;49.554;7.632;2023-04-24T08:00:15;11.10;99.90
15413;DHT22;7805;49.554;7.632;2023-04-24T08:02:40;11.10;99.90
15413;DHT22;7805;49.554;7.632;2023-04-24T08:05:06;11.20;99.90
15413;DHT22;7805;49.554;7.632;2023-04-24T08:07:32;11.20;99.90
15413;DHT22;7805;49.554;7.632;2023-04-24T08:09:58;11.30;99.90
15413;DHT22;7805;49.554;7.632;2023-04-24T08:12:24;11.30;99.90
15413;DHT22;7805;49.554;7.632;2023-04-24T08:14:50;11.30;99.90
15413;DHT22;7805;49.554;7.632;2023-04-24T08:17:17;11.30;99.90
15413;DHT22;7805;49.554;7.632;2023-04-24T08:19:42;11.30;99.90
15413;DHT22;7805;49.554;7.632;2023-04-24T08:22:13;11.30;99.90
15413;DHT22;7805;49.554;7.632;2023-04-24T08:24:38;11.20;99.90
15413;DHT22;7805;49.554;7.632;2023-04-24T08:27:04;11.30;99.90
15413;DHT22;7805;49.554;7.632;2023-04-24T08:29:29;11.20;99.90
15413;DHT22;7805;49.554;7.632;2023-04-24T08:31:55;11.10;99.90
15413;DHT22;7805;49.554;7.632;2023-04-24T08:34:21;11.10;99.90
15413;DHT22;7805;49.554;7.632;2023-04-24T08:36:47;11.20;99.90
15413;DHT22;7805;49.554;7.632;2023-04-24T08:39:13;11.30;99.90
15413;DHT22;7805;49.554;7.632;2023-04-24T08:41:41;11.30;99.90
15413;DHT22;7805;49.554;7.632;2023-04-24T08:44:09;11.30;99.90
15413;DHT22;7805;49.554;7.632;2023-04-24T08:46:35;11.20;99.90
15413;DHT22;7805;49.554;7.632;2023-04-24T08:49:02;11.20;99.90
15413;DHT22;7805;49.554;7.632;2023-04-24T08:51:29;11.30;99.90
15413;DHT22;7805;49.554;7.632;2023-04-24T08:53:57;11.30;99.90
15413;DHT22;7805;49.554;7.632;2023-04-24T08:56:23;11.20;99.90
15413;DHT22;7805;49.554;7.632;2023-04-24T08:58:53;11.10;99.90
15413;DHT22;7805;49.554;7.632;2023-04-24T09:01:25;11.10;99.90
15413;DHT22;7805;49.554;7.632;2023-04-24T09:03:51;11.00;99.90
15413;DHT22;7805;49.554;7.632;2023-04-24T09:06:19;11.00;99.90
15413;DHT22;7805;49.554;7.632;2023-04-24T09:08:49;11.00;99.90
15413;DHT22;7805;49.554;7.632;2023-04-24T09:11:16;10.90;99.90
15413;DHT22;7805;49.554;7.632;2023-04-24T09:13:43;11.00;99.90
15413;DHT22;7805;49.554;7.632;2023-04-24T09:16:08;11.50;99.90
15413;DHT22;7805;49.554;7.632;2023-04-24T09:18:34;11.30;99.90
15413;DHT22;7805;49.554;7.632;2023-04-24T09:21:06;11.30;99.90
15413;DHT22;7805;49.554;7.632;2023-04-24T09:23:32;11.30;99.90
15413;DHT22;7805;49.554;7.632;2023-04-24T09:25:59;11.30;99.90
15413;DHT22;7805;49.554;7.632;2023-04-24T09:28:32;11.30;99.90
15413;DHT22;7805;49.554;7.632;2023-04-24T09:31:09;11.30;99.90
15413;DHT22;7805;49.554;7.632;2023-04-24T09:33:35;11.20;99.90
15413;DHT22;7805;49.554;7.632;2023-04-24T09:36:01;11.20;99.90
15413;DHT22;7805;49.554;7.632;2023-04-24T09:38:36;11.10;99.90
15413;DHT22;7805;49.554;7.632;2023-04-24T09:41:06;11.10;99.90
15413;DHT22;7805;49.554;7.632;2023-04-24T09:43:33;11.10;99.90
15413;DHT22;7805;49.554;7.632;2023-04-24T09:46:03;11.10;99.90
15413;DHT22;7805;49.554;7.632;2023-04-24T09:48:34;11.10;99.90
15413;DHT22;7805;49.554;7.632;2023-04-24T09:51:01;11.20;99.90
15413;DHT22;7805;49.554;7.632;2023-04-24T09:53:29;11.40;99.90
15413;DHT22;7805;49.554;7.632;2023-04-24T09:55:55;11.40;99.90
15413;DHT22;7805;49.554;7.632;2023-04-24T09:58:30;11.50;99.90
15413;DHT22;7805;49.554;7.632;2023-04-24T10:00:56;11.60;99.90
15413;DHT22;7805;49.554;7.632;2023-04-24T10:03:26;11.80;99.90
15413;DHT22;7805;49.554;7.632;2023-04-24T10:06:01;14.00;99.90
15413;DHT22;7805;49.554;7.632;2023-04-24T10:08:33;12.30;99.90
15413;DHT22;7805;49.554;7.632;2023-04-24T10:10:59;12.50;99.90
15413;DHT22;7805;49.554;7.632;2023-04-24T10:13:25;12.50;99.90
15413;DHT22;7805;49.554;7.632;2023-04-24T10:15:51;12.60;99.90
15413;DHT22;7805;49.554;7.632;2023-04-24T10:18:17;12.60;99.90
15413;DHT22;7805;49.554;7.632;2023-04-24T10:20:43;12.50;99.90
15413;DHT22;7805;49.554;7.632;2023-04-24T10:23:09;12.40;99.90
15413;DHT22;7805;49.554;7.632;2023-04-24T10:25:35;12.60;99.90
15413;DHT22;7805;49.554;7.632;2023-04-24T10:28:03;12.70;99.90
15413;DHT22;7805;49.554;7.632;2023-04-24T10:30:34;12.70;99.90
15413;DHT22;7805;49.554;7.632;2023-04-24T10:33:01;12.80;99.90
15413;DHT22;7805;49.554;7.632;2023-04-24T10:35:30;13.10;99.90
15413;DHT22;7805;49.554;7.632;2023-04-24T10:37:59;13.50;99.90
15413;DHT22;7805;49.554;7.632;2023-04-24T10:40:30;13.70;99.90
15413;DHT22;7805;49.554;7.632;2023-04-24T10:42:56;13.90;99.90
15413;DHT22;7805;49.554;7.632;2023-04-24T10:45:23;14.00;99.90
15413;DHT22;7805;49.554;7.632;2023-04-24T10:48:00;14.10;99.90
15413;DHT22;7805;49.554;7.632;2023-04-24T10:50:45;13.30;99.90
15413;DHT22;7805;49.554;7.632;2023-04-24T10:53:30;12.80;99.90
15413;DHT22;7805;49.554;7.632;2023-04-24T10:56:03;12.80;99.90
15413;DHT22;7805;49.554;7.632;2023-04-24T10:58:51;12.60;99.90
15413;DHT22;7805;49.554;7.632;2023-04-24T11:01:33;12.40;99.90
15413;DHT22;7805;49.554;7.632;2023-04-24T11:04:02;12.50;99.90
15413;DHT22;7805;49.554;7.632;2023-04-24T11:06:37;12.70;99.90
15413;DHT22;7805;49.554;7.632;2023-04-24T11:09:10;12.80;99.90
15413;DHT22;7805;49.554;7.632;2023-04-24T11:11:44;12.90;99.90
15413;DHT22;7805;49.554;7.632;2023-04-24T11:14:10;13.00;99.90
15413;DHT22;7805;49.554;7.632;2023-04-24T11:16:59;13.00;99.90
15413;DHT22;7805;49.554;7.632;2023-04-24T11:19:26;13.10;99.90
15413;DHT22;7805;49.554;7.632;2023-04-24T11:22:02;13.20;99.90
15413;DHT22;7805;49.554;7.632;2023-04-24T11:27:11;13.30;99.90
15413;DHT22;7805;49.554;7.632;2023-04-24T11:34:49;13.50;99.90
15413;DHT22;7805;49.554;7.632;2023-04-24T11:37:15;13.50;99.90
15413;DHT22;7805;49.554;7.632;2023-04-24T11:39:41;13.50;99.90
15413;DHT22;7805;49.554;7.632;2023-04-24T11:42:07;13.60;99.90
15413;DHT22;7805;49.554;7.632;2023-04-24T11:44:34;13.60;99.90
15413;DHT22;7805;49.554;7.632;2023-04-24T11:47:05;13.60;99.90
15413;DHT22;7805;49.554;7.632;2023-04-24T11:49:32;13.50;99.90
15413;DHT22;7805;49.554;7.632;2023-04-24T11:51:59;13.50;99.90
15413;DHT22;7805;49.554;7.632;2023-04-24T11:54:25;13.70;99.90
15413;DHT22;7805;49.554;7.632;2023-04-24T11:56:50;13.80;99.90
15413;DHT22;7805;49.554;7.632;2023-04-24T11:59:16;13.90;99.90
15413;DHT22;7805;49.554;7.632;2023-04-24T12:01:46;13.70;99.90
15413;DHT22;7805;49.554;7.632;2023-04-24T12:04:12;13.50;99.90
15413;DHT22;7805;49.554;7.632;2023-04-24T12:06:38;13.20;99.90
15413;DHT22;7805;49.554;7.632;2023-04-24T12:09:03;13.10;99.90
15413;DHT22;7805;49.554;7.632;2023-04-24T12:11:29;12.90;99.90
15413;DHT22;7805;49.554;7.632;2023-04-24T12:13:55;13.00;99.90
15413;DHT22;7805;49.554;7.632;2023-04-24T12:16:21;13.10;99.90
15413;DHT22;7805;49.554;7.632;2023-04-24T12:18:46;13.40;99.90
15413;DHT22;7805;49.554;7.632;2023-04-24T12:21:24;13.80;99.90
15413;DHT22;7805;49.554;7.632;2023-04-24T12:23:54;14.40;99.90
15413;DHT22;7805;49.554;7.632;2023-04-24T12:26:20;14.60;99.90
15413;DHT22;7805;49.554;7.632;2023-04-24T12:28:49;14.50;99.90
15413;DHT22;7805;49.554;7.632;2023-04-24T12:31:15;14.50;99.90
15413;DHT22;7805;49.554;7.632;2023-04-24T12:33:41;14.30;99.90
15413;DHT22;7805;49.554;7.632;2023-04-24T12:36:09;14.30;99.90
15413;DHT22;7805;49.554;7.632;2023-04-24T12:38:35;14.20;99.90
15413;DHT22;7805;49.554;7.632;2023-04-24T12:41:07;14.10;99.90
15413;DHT22;7805;49.554;7.632;2023-04-24T12:43:33;14.20;99.90
15413;DHT22;7805;49.554;7.632;2023-04-24T12:45:59;14.00;99.90
15413;DHT22;7805;49.554;7.632;2023-04-24T12:48:26;14.20;99.90
15413;DHT22;7805;49.554;7.632;2023-04-24T12:50:51;14.20;99.90
15413;DHT22;7805;49.554;7.632;2023-04-24T12:53:17;14.00;99.90
15413;DHT22;7805;49.554;7.632;2023-04-24T12:55:43;14.10;99.90
15413;DHT22;7805;49.554;7.632;2023-04-24T12:58:10;14.10;99.90
15413;DHT22;7805;49.554;7.632;2023-04-24T13:00:35;14.10;99.90
15413;DHT22;7805;49.554;7.632;2023-04-24T13:03:01;14.00;99.90
15413;DHT22;7805;49.554;7.632;2023-04-24T13:05:27;13.80;99.90
15413;DHT22;7805;49.554;7.632;2023-04-24T13:07:53;13.90;99.90
15413;DHT22;7805;49.554;7.632;2023-04-24T13:10:18;13.80;99.90
15413;DHT22;7805;49.554;7.632;2023-04-24T13:12:44;13.70;99.90
15413;DHT22;7805;49.554;7.632;2023-04-24T13:15:11;13.90;99.90
15413;DHT22;7805;49.554;7.632;2023-04-24T13:17:37;14.00;99.90
15413;DHT22;7805;49.554;7.632;2023-04-24T13:20:04;14.20;99.90
15413;DHT22;7805;49.554;7.632;2023-04-24T13:22:30;14.40;99.90
15413;DHT22;7805;49.554;7.632;2023-04-24T13:24:56;14.60;99.90
15413;DHT22;7805;49.554;7.632;2023-04-24T13:27:22;14.70;99.90
15413;DHT22;7805;49.554;7.632;2023-04-24T13:29:48;14.90;99.90
15413;DHT22;7805;49.554;7.632;2023-04-24T13:32:13;14.80;99.70
15413;DHT22;7805;49.554;7.632;2023-04-24T13:34:39;14.60;99.60
15413;DHT22;7805;49.554;7.632;2023-04-24T13:37:05;14.50;99.90
15413;DHT22;7805;49.554;7.632;2023-04-24T13:39:30;14.50;99.90
15413;DHT22;7805;49.554;7.632;2023-04-24T13:41:57;14.30;99.90
15413;DHT22;7805;49.554;7.632;2023-04-24T13:44:23;14.10;99.90
15413;DHT22;7805;49.554;7.632;2023-04-24T13:46:51;14.10;99.90
15413;DHT22;7805;49.554;7.632;2023-04-24T13:49:19;13.90;99.90
15413;DHT22;7805;49.554;7.632;2023-04-24T13:51:44;13.70;99.90
15413;DHT22;7805;49.554;7.632;2023-04-24T13:54:11;13.90;99.90
15413;DHT22;7805;49.554;7.632;2023-04-24T13:56:37;14.10;99.90
15413;DHT22;7805;49.554;7.632;2023-04-24T13:59:02;14.20;99.90
15413;DHT22;7805;49.554;7.632;2023-04-24T14:01:28;14.30;99.90
15413;DHT22;7805;49.554;7.632;2023-04-24T14:03:54;14.30;99.90
15413;DHT22;7805;49.554;7.632;2023-04-24T14:06:20;14.20;99.90
15413;DHT22;7805;49.554;7.632;2023-04-24T14:08:47;14.30;99.90
15413;DHT22;7805;49.554;7.632;2023-04-24T14:11:12;14.00;99.90
15413;DHT22;7805;49.554;7.632;2023-04-24T14:13:39;13.90;99.90
15413;DHT22;7805;49.554;7.632;2023-04-24T14:16:06;13.90;99.90
15413;DHT22;7805;49.554;7.632;2023-04-24T14:18:31;14.10;99.90
15413;DHT22;7805;49.554;7.632;2023-04-24T14:20:57;14.60;99.90
15413;DHT22;7805;49.554;7.632;2023-04-24T14:23:22;14.70;99.90
15413;DHT22;7805;49.554;7.632;2023-04-24T14:25:48;14.80;99.90
15413;DHT22;7805;49.554;7.632;2023-04-24T14:28:20;15.10;99.90
15413;DHT22;7805;49.554;7.632;2023-04-24T14:30:47;15.40;99.90
15413;DHT22;7805;49.554;7.632;2023-04-24T14:33:13;15.80;99.90
15413;DHT22;7805;49.554;7.632;2023-04-24T14:35:39;16.20;99.90
15413;DHT22;7805;49.554;7.632;2023-04-24T14:38:05;16.50;99.90
15413;DHT22;7805;49.554;7.632;2023-04-24T14:40:31;17.10;99.90
15413;DHT22;7805;49.554;7.632;2023-04-24T14:42:57;17.00;99.90
15413;DHT22;7805;49.554;7.632;2023-04-24T14:45:24;16.70;99.70
15413;DHT22;7805;49.554;7.632;2023-04-24T14:47:50;16.50;99.90
15413;DHT22;7805;49.554;7.632;2023-04-24T14:50:15;16.10;99.90
15413;DHT22;7805;49.554;7.632;2023-04-24T14:52:41;15.60;99.90
15413;DHT22;7805;49.554;7.632;2023-04-24T14:55:07;15.50;99.90
15413;DHT22;7805;49.554;7.632;2023-04-24T14:57:33;15.00;99.90
15413;DHT22;7805;49.554;7.632;2023-04-24T14:59:59;14.60;99.90
15413;DHT22;7805;49.554;7.632;2023-04-24T15:02:24;14.20;99.90
15413;DHT22;7805;49.554;7.632;2023-04-24T15:04:50;13.90;99.90
15413;DHT22;7805;49.554;7.632;2023-04-24T15:07:16;13.50;99.90
15413;DHT22;7805;49.554;7.632;2023-04-24T15:09:41;13.40;99.90
15413;DHT22;7805;49.554;7.632;2023-04-24T15:12:08;13.50;99.90
15413;DHT22;7805;49.554;7.632;2023-04-24T15:14:33;13.60;99.90
15413;DHT22;7805;49.554;7.632;2023-04-24T15:16:59;13.80;99.90
15413;DHT22;7805;49.554;7.632;2023-04-24T15:19:25;13.30;99.90
15413;DHT22;7805;49.554;7.632;2023-04-24T15:21:50;13.70;99.90
15413;DHT22;7805;49.554;7.632;2023-04-24T15:24:16;13.80;99.90
15413;DHT22;7805;49.554;7.632;2023-04-24T15:26:41;13.90;99.90
15413;DHT22;7805;49.554;7.632;2023-04-24T15:29:07;14.00;99.90
15413;DHT22;7805;49.554;7.632;2023-04-24T15:31:32;14.30;99.90
15413;DHT22;7805;49.554;7.632;2023-04-24T15:33:58;14.70;99.90
15413;DHT22;7805;49.554;7.632;2023-04-24T15:36:23;15.20;99.90
15413;DHT22;7805;49.554;7.632;2023-04-24T15:38:49;15.60;99.90
15413;DHT22;7805;49.554;7.632;2023-04-24T15:41:15;16.10;99.90
15413;DHT22;7805;49.554;7.632;2023-04-24T15:43:40;16.50;99.90
15413;DHT22;7805;49.554;7.632;2023-04-24T15:46:07;16.80;99.90
15413;DHT22;7805;49.554;7.632;2023-04-24T15:48:33;16.70;99.90